createdAt,value
2019-03-19T00:00:31.979Z,102346.33
2019-03-19T00:03:01.034Z,102349.78
2019-03-19T00:05:30.053Z,102346.56
2019-03-19T00:07:59.078Z,102349.61
2019-03-19T00:10:28.193Z,102346.45
2019-03-19T00:12:57.201Z,102357.31
2019-03-19T00:15:26.576Z,102352.58
2019-03-19T00:17:55.616Z,102349.37
2019-03-19T00:20:24.635Z,102359.31
2019-03-19T00:22:53.971Z,102359.55
2019-03-19T00:25:29.823Z,102353.42
2019-03-19T00:27:53.745Z,102363.53
2019-03-19T00:30:22.782Z,102363.72
2019-03-19T00:32:51.849Z,102366.57
2019-03-19T00:35:20.857Z,102367.69
2019-03-19T00:37:50.613Z,102367.30
2019-03-19T00:40:19.599Z,102363.48
2019-03-19T00:42:48.610Z,102373.86
2019-03-19T00:45:17.663Z,102368.59
2019-03-19T00:47:47.000Z,102361.14
2019-03-19T00:50:16.046Z,102367.04
2019-03-19T00:52:45.047Z,102365.19
2019-03-19T00:55:14.573Z,102371.98
2019-03-19T00:57:43.615Z,102367.30
2019-03-19T01:00:12.777Z,102364.44
2019-03-19T01:02:41.786Z,102361.34
2019-03-19T01:05:10.881Z,102364.90
2019-03-19T01:07:40.263Z,102360.73
2019-03-19T01:10:10.485Z,102358.70
2019-03-19T01:12:39.878Z,102362.38
2019-03-19T01:15:09.884Z,102356.16
2019-03-19T01:17:38.931Z,102365.27
2019-03-19T01:20:09.610Z,102365.98
2019-03-19T01:22:38.753Z,102361.59
2019-03-19T01:25:08.639Z,102359.11
2019-03-19T01:27:38.000Z,102357.11
2019-03-19T01:30:07.838Z,102360.61
2019-03-19T01:32:36.895Z,102359.56
2019-03-19T01:35:06.229Z,102362.98
2019-03-19T01:37:35.564Z,102360.80
2019-03-19T01:40:05.674Z,102365.70
2019-03-19T01:42:34.688Z,102370.89
2019-03-19T01:45:03.949Z,102369.63
2019-03-19T01:47:32.944Z,102368.04
2019-03-19T01:50:01.954Z,102374.20
2019-03-19T01:52:30.995Z,102375.13
2019-03-19T01:55:00.002Z,102376.38
2019-03-19T01:57:29.392Z,102366.77
2019-03-19T01:59:58.411Z,102365.81
2019-03-19T02:02:27.764Z,102366.38
2019-03-19T02:04:57.152Z,102365.05
2019-03-19T02:07:26.170Z,102371.59
2019-03-19T02:09:55.199Z,102375.86
2019-03-19T02:12:24.221Z,102374.24
2019-03-19T02:14:53.282Z,102372.08
2019-03-19T02:17:22.643Z,102372.52
2019-03-19T02:19:51.949Z,102377.11
2019-03-19T02:22:21.344Z,102377.59
2019-03-19T02:24:50.374Z,102385.86
2019-03-19T02:27:19.799Z,102384.69
2019-03-19T02:29:49.211Z,102383.77
2019-03-19T02:32:18.938Z,102392.13
2019-03-19T02:34:47.942Z,102393.16
2019-03-19T02:37:17.293Z,102392.39
2019-03-19T02:39:46.357Z,102406.31
2019-03-19T02:42:15.354Z,102407.42
2019-03-19T02:44:44.349Z,102413.77
2019-03-19T02:47:13.665Z,102413.98
2019-03-19T02:49:43.003Z,102411.60
2019-03-19T02:52:12.294Z,102415.86
2019-03-19T02:54:41.600Z,102408.19
2019-03-19T02:57:10.592Z,102411.20
2019-03-19T02:59:39.612Z,102413.55
2019-03-19T03:02:08.621Z,102411.20
2019-03-19T03:04:37.644Z,102417.33
2019-03-19T03:07:06.660Z,102414.87
2019-03-19T03:09:35.669Z,102411.34
2019-03-19T03:12:05.365Z,102405.98
2019-03-19T03:14:34.435Z,102420.23
2019-03-19T03:17:03.447Z,102428.23
2019-03-19T03:19:32.832Z,102424.81
2019-03-19T03:22:01.895Z,102420.92
2019-03-19T03:24:31.233Z,102423.42
2019-03-19T03:27:02.158Z,102429.48
2019-03-19T03:29:30.985Z,102426.83
2019-03-19T03:32:00.502Z,102428.78
2019-03-19T03:34:29.527Z,102428.70
2019-03-19T03:36:58.484Z,102431.65
2019-03-19T03:39:27.745Z,102431.50
2019-03-19T03:41:56.778Z,102439.65
2019-03-19T03:44:25.774Z,102433.66
2019-03-19T03:46:55.206Z,102443.47
2019-03-19T03:49:24.223Z,102436.78
2019-03-19T03:51:53.554Z,102441.59
2019-03-19T03:54:22.569Z,102444.23
2019-03-19T03:57:01.891Z,102451.54
2019-03-19T03:59:22.785Z,102448.27
2019-03-19T04:01:51.817Z,102444.30
2019-03-19T04:04:20.812Z,102445.55
2019-03-19T04:06:49.824Z,102450.55
2019-03-19T04:09:19.194Z,102444.01
2019-03-19T04:11:48.653Z,102447.81
2019-03-19T04:14:17.670Z,102448.05
2019-03-19T04:16:46.710Z,102445.80
2019-03-19T04:19:15.686Z,102445.88
2019-03-19T04:21:45.081Z,102449.52
2019-03-19T04:24:14.093Z,102453.56
2019-03-19T04:26:43.582Z,102461.31
2019-03-19T04:29:12.608Z,102466.44
2019-03-19T04:31:41.596Z,102460.91
2019-03-19T04:34:10.652Z,102458.98
2019-03-19T04:36:39.941Z,102453.33
2019-03-19T04:39:09.355Z,102455.09
2019-03-19T04:41:38.813Z,102453.63
2019-03-19T04:44:08.504Z,102465.98
2019-03-19T04:46:37.869Z,102469.61
2019-03-19T04:49:06.898Z,102466.88
2019-03-19T04:51:35.943Z,102475.02
2019-03-19T04:54:05.342Z,102481.96
2019-03-19T04:56:34.970Z,102473.84
2019-03-19T04:59:04.369Z,102468.05
2019-03-19T05:01:33.370Z,102474.92
2019-03-19T05:04:02.402Z,102474.75
2019-03-19T05:06:31.450Z,102470.28
2019-03-19T05:09:00.501Z,102474.37
2019-03-19T05:11:29.528Z,102479.02
2019-03-19T05:13:58.554Z,102485.22
2019-03-19T05:16:27.596Z,102484.06
2019-03-19T05:18:56.651Z,102478.14
2019-03-19T05:21:25.658Z,102481.97
2019-03-19T05:23:54.711Z,102480.30
2019-03-19T05:26:24.018Z,102477.70
2019-03-19T05:28:53.054Z,102482.56
2019-03-19T05:31:22.426Z,102474.52
2019-03-19T05:33:51.438Z,102482.20
2019-03-19T05:36:20.494Z,102479.42
2019-03-19T05:38:49.540Z,102475.94
2019-03-19T05:41:18.563Z,102475.23
2019-03-19T05:43:47.606Z,102479.80
2019-03-19T05:46:16.642Z,102478.20
2019-03-19T05:48:45.771Z,102487.00
2019-03-19T05:51:15.100Z,102480.84
2019-03-19T05:53:44.104Z,102492.52
2019-03-19T05:56:13.479Z,102481.48
2019-03-19T05:58:42.492Z,102494.61
2019-03-19T06:01:11.527Z,102495.45
2019-03-19T06:03:40.532Z,102493.83
2019-03-19T06:06:09.581Z,102506.20
2019-03-19T06:08:38.606Z,102504.75
2019-03-19T06:11:07.651Z,102510.33
2019-03-19T06:13:36.725Z,102506.55
2019-03-19T06:16:06.096Z,102514.41
2019-03-19T06:18:35.740Z,102519.62
2019-03-19T06:21:05.187Z,102526.80
2019-03-19T06:23:34.266Z,102526.00
2019-03-19T06:26:03.306Z,102528.88
2019-03-19T06:28:32.335Z,102528.91
2019-03-19T06:31:01.404Z,102537.17
2019-03-19T06:33:30.434Z,102538.19
2019-03-19T06:35:59.492Z,102533.88
2019-03-19T06:38:28.521Z,102533.39
2019-03-19T06:40:57.981Z,102535.83
2019-03-19T06:43:27.026Z,102532.25
2019-03-19T06:45:56.348Z,102540.27
2019-03-19T06:48:26.174Z,102537.25
2019-03-19T06:50:55.248Z,102539.72
2019-03-19T06:53:24.723Z,102540.59
2019-03-19T06:55:53.749Z,102541.99
2019-03-19T06:58:23.192Z,102548.28
2019-03-19T07:00:52.560Z,102557.55
2019-03-19T07:03:21.615Z,102556.77
2019-03-19T07:05:50.952Z,102556.84
2019-03-19T07:08:19.981Z,102556.98
2019-03-19T07:10:49.008Z,102560.73
2019-03-19T07:13:18.056Z,102558.08
2019-03-19T07:15:47.072Z,102564.92
2019-03-19T07:18:17.136Z,102569.52
2019-03-19T07:20:46.185Z,102567.50
2019-03-19T07:23:15.856Z,102568.48
2019-03-19T07:25:45.206Z,102563.16
2019-03-19T07:28:21.976Z,102567.81
2019-03-19T07:30:45.642Z,102567.73
2019-03-19T07:33:15.012Z,102575.21
2019-03-19T07:35:44.354Z,102574.86
2019-03-19T07:38:13.736Z,102574.19
2019-03-19T07:40:43.134Z,102571.19
2019-03-19T07:43:12.150Z,102580.39
2019-03-19T07:45:41.186Z,102571.67
2019-03-19T07:48:10.186Z,102571.54
2019-03-19T07:50:39.244Z,102573.31
2019-03-19T07:53:08.617Z,102581.00
2019-03-19T07:55:37.652Z,102582.30
2019-03-19T07:58:06.988Z,102584.07
2019-03-19T08:00:37.358Z,102587.17
2019-03-19T08:03:15.613Z,102599.34
2019-03-19T08:05:37.475Z,102598.17
2019-03-19T08:08:06.472Z,102600.25
2019-03-19T08:10:35.504Z,102602.64
2019-03-19T08:13:04.535Z,102604.37
2019-03-19T08:15:33.597Z,102608.37
2019-03-19T08:18:02.994Z,102610.94
2019-03-19T08:20:32.356Z,102611.02
2019-03-19T08:23:01.743Z,102613.27
2019-03-19T08:25:31.410Z,102615.36
2019-03-19T08:28:00.808Z,102624.13
2019-03-19T08:30:30.200Z,102625.72
2019-03-19T08:32:59.233Z,102630.73
2019-03-19T08:35:28.342Z,102626.50
2019-03-19T08:37:57.360Z,102585.08
2019-03-19T08:40:26.669Z,102634.91
2019-03-19T08:42:58.108Z,102635.34
2019-03-19T08:45:27.116Z,102637.82
2019-03-19T08:47:56.181Z,102635.11
2019-03-19T08:50:25.445Z,102637.33
2019-03-19T08:52:55.579Z,102635.09
2019-03-19T08:55:24.783Z,102630.12
2019-03-19T08:57:53.795Z,102630.12
2019-03-19T09:00:22.802Z,102633.89
2019-03-19T09:02:52.801Z,102633.48
2019-03-19T09:05:25.219Z,102629.63
2019-03-19T09:07:54.299Z,102633.53
2019-03-19T09:10:23.710Z,102629.36
2019-03-19T09:12:52.709Z,102629.42
2019-03-19T09:15:22.146Z,102632.12
2019-03-19T09:17:51.156Z,102624.87
2019-03-19T09:20:20.166Z,102620.19
2019-03-19T09:22:49.195Z,102625.05
2019-03-19T09:25:18.502Z,102623.41
2019-03-19T09:27:47.546Z,102630.08
2019-03-19T09:30:16.956Z,102632.03
2019-03-19T09:32:45.994Z,102626.20
2019-03-19T09:35:15.426Z,102635.16
2019-03-19T09:37:57.231Z,102634.44
2019-03-19T09:40:15.814Z,102640.76
2019-03-19T09:42:45.232Z,102640.76
2019-03-19T09:45:14.750Z,102642.08
2019-03-19T09:47:43.747Z,102645.64
2019-03-19T09:50:13.817Z,102641.16
2019-03-19T09:52:43.212Z,102646.52
2019-03-19T09:55:12.643Z,102655.58
2019-03-19T09:57:41.957Z,102655.41
2019-03-19T10:00:13.834Z,102658.83
2019-03-19T10:02:42.843Z,102664.75
2019-03-19T10:05:11.865Z,102670.34
2019-03-19T10:07:41.264Z,102664.98
2019-03-19T10:10:11.744Z,102667.92
2019-03-19T10:12:40.768Z,102669.41
2019-03-19T10:15:10.149Z,102675.80
2019-03-19T10:17:39.558Z,102678.03
2019-03-19T10:20:11.043Z,102674.89
2019-03-19T10:22:40.062Z,102675.77
2019-03-19T10:25:09.945Z,102681.41
2019-03-19T10:27:39.352Z,102678.86
2019-03-19T10:30:12.438Z,102672.91
2019-03-19T10:32:41.456Z,102664.86
2019-03-19T10:35:11.256Z,102675.61
2019-03-19T10:37:40.291Z,102676.46
2019-03-19T10:40:09.818Z,102675.95
2019-03-19T10:42:38.855Z,102678.53
2019-03-19T10:45:09.096Z,102678.93
2019-03-19T10:47:38.110Z,102671.39
2019-03-19T10:50:10.452Z,102671.02
2019-03-19T10:52:39.791Z,102668.64
2019-03-19T10:55:08.785Z,102669.03
2019-03-19T10:57:37.793Z,102672.00
2019-03-19T11:00:11.645Z,102667.29
2019-03-19T11:02:41.034Z,102674.78
2019-03-19T11:05:11.070Z,102676.80
2019-03-19T11:07:40.101Z,102677.17
2019-03-19T11:10:09.414Z,102678.38
2019-03-19T11:12:38.461Z,102679.90
2019-03-19T11:15:08.878Z,102684.64
2019-03-19T11:17:37.937Z,102688.48
2019-03-19T11:20:07.914Z,102686.70
2019-03-19T11:22:37.254Z,102691.59
2019-03-19T11:25:08.444Z,102694.38
2019-03-19T11:27:37.497Z,102685.69
2019-03-19T11:30:09.535Z,102675.73
2019-03-19T11:32:39.231Z,102667.05
2019-03-19T11:35:09.312Z,102668.22
2019-03-19T11:37:38.684Z,102666.48
2019-03-19T11:40:07.923Z,102672.44
2019-03-19T11:42:36.948Z,102672.77
2019-03-19T11:45:07.049Z,102672.84
2019-03-19T11:47:36.069Z,102667.20
2019-03-19T11:50:06.628Z,102678.42
2019-03-19T11:52:35.907Z,102679.34
2019-03-19T11:55:06.289Z,102680.87
2019-03-19T11:57:35.704Z,102677.80
2019-03-19T12:00:11.065Z,102678.40
2019-03-19T12:02:37.715Z,102684.55
2019-03-19T12:05:07.138Z,102679.34
2019-03-19T12:07:36.519Z,102679.22
2019-03-19T12:10:06.099Z,102672.77
2019-03-19T12:12:35.223Z,102671.34
2019-03-19T12:15:04.769Z,102675.02
2019-03-19T12:17:34.525Z,102675.86
2019-03-19T12:20:03.605Z,102678.48
2019-03-19T12:22:32.643Z,102675.84
2019-03-19T12:25:01.627Z,102674.94
2019-03-19T12:27:30.927Z,102677.26
2019-03-19T12:29:59.950Z,102679.58
2019-03-19T12:32:28.985Z,102680.34
2019-03-19T12:34:57.973Z,102677.41
2019-03-19T12:37:27.043Z,102683.08
2019-03-19T12:39:56.310Z,102679.56
2019-03-19T12:42:25.334Z,102677.06
2019-03-19T12:44:54.703Z,102673.18
2019-03-19T12:47:24.114Z,102670.77
2019-03-19T12:49:53.140Z,102667.30
2019-03-19T12:52:22.259Z,102667.86
2019-03-19T12:54:51.685Z,102668.81
2019-03-19T12:57:20.699Z,102665.39
2019-03-19T12:59:49.987Z,102663.41
2019-03-19T13:02:19.283Z,102657.59
2019-03-19T13:04:48.341Z,102632.83
2019-03-19T13:07:17.351Z,102656.17
2019-03-19T13:09:46.352Z,102651.88
2019-03-19T13:12:15.617Z,102653.89
2019-03-19T13:14:44.624Z,102647.27
2019-03-19T13:17:13.967Z,102647.80
2019-03-19T13:19:43.003Z,102651.53
2019-03-19T13:22:12.646Z,102652.58
2019-03-19T13:24:43.513Z,102656.09
2019-03-19T13:27:12.835Z,102662.16
2019-03-19T13:29:43.229Z,102658.96
2019-03-19T13:32:12.823Z,102660.42
2019-03-19T13:34:43.761Z,102660.31
2019-03-19T13:37:13.044Z,102659.63
2019-03-19T13:39:42.061Z,102663.20
2019-03-19T13:42:11.689Z,102657.55
2019-03-19T13:44:42.392Z,102662.20
2019-03-19T13:47:11.600Z,102658.38
2019-03-19T13:49:43.297Z,102664.04
2019-03-19T13:52:11.914Z,102667.47
2019-03-19T13:54:42.125Z,102664.91
2019-03-19T13:57:11.416Z,102656.41
2019-03-19T13:59:40.463Z,102657.77
2019-03-19T14:02:09.520Z,102643.95
2019-03-19T14:04:38.791Z,102663.67
2019-03-19T14:07:08.088Z,102656.23
2019-03-19T14:09:37.131Z,102654.40
2019-03-19T14:12:06.160Z,102658.59
2019-03-19T14:14:35.493Z,102657.33
2019-03-19T14:17:06.555Z,102650.55
2019-03-19T14:19:35.545Z,102648.31
2019-03-19T14:22:05.480Z,102652.47
2019-03-19T14:24:34.563Z,102648.28
2019-03-19T14:27:03.550Z,102652.70
2019-03-19T14:29:32.596Z,102656.48
2019-03-19T14:32:03.924Z,102651.56
2019-03-19T14:34:32.685Z,102641.22
2019-03-19T14:37:01.961Z,102652.36
2019-03-19T14:39:30.985Z,102647.16
2019-03-19T14:42:00.300Z,102651.87
2019-03-19T14:44:29.587Z,102650.25
2019-03-19T14:46:58.891Z,102646.42
2019-03-19T14:49:28.193Z,102645.94
2019-03-19T14:51:57.238Z,102644.72
2019-03-19T14:54:26.569Z,102650.95
2019-03-19T14:56:55.587Z,102653.64
2019-03-19T14:59:24.881Z,102648.53
2019-03-19T15:01:54.174Z,102653.28
2019-03-19T15:04:23.212Z,102651.15
2019-03-19T15:06:52.312Z,102655.48
2019-03-19T15:09:21.632Z,102650.58
2019-03-19T15:11:51.181Z,102654.06
2019-03-19T15:14:20.757Z,102653.43
2019-03-19T15:16:49.793Z,102656.70
2019-03-19T15:19:18.864Z,102657.61
2019-03-19T15:21:48.129Z,102654.50
2019-03-19T15:24:17.153Z,102652.02
2019-03-19T15:26:46.207Z,102653.16
2019-03-19T15:29:15.455Z,102638.78
2019-03-19T15:31:44.559Z,102662.42
2019-03-19T15:34:13.566Z,102656.70
2019-03-19T15:36:42.636Z,102652.87
2019-03-19T15:39:11.672Z,102661.98
2019-03-19T15:41:40.690Z,102662.34
2019-03-19T15:44:09.720Z,102654.48
2019-03-19T15:46:38.799Z,102653.56
2019-03-19T15:49:07.806Z,102658.58
2019-03-19T15:51:36.908Z,102654.48
2019-03-19T15:54:05.958Z,102654.70
2019-03-19T15:56:35.027Z,102652.45
2019-03-19T15:59:04.306Z,102651.23
2019-03-19T16:01:40.279Z,102654.34
2019-03-19T16:04:05.630Z,102650.89
2019-03-19T16:06:34.788Z,102658.73
2019-03-19T16:09:05.655Z,102653.48
2019-03-19T16:11:34.688Z,102656.41
2019-03-19T16:14:04.005Z,102657.13
2019-03-19T16:16:33.093Z,102660.94
2019-03-19T16:19:02.130Z,102661.14
2019-03-19T16:21:31.450Z,102659.95
2019-03-19T16:24:00.834Z,102667.15
2019-03-19T16:26:29.830Z,102664.82
2019-03-19T16:28:58.878Z,102672.44
2019-03-19T16:31:27.921Z,102672.44
2019-03-19T16:33:57.069Z,102674.44
2019-03-19T16:36:26.298Z,102675.99
2019-03-19T16:38:55.416Z,102677.33
2019-03-19T16:41:24.744Z,102677.33
2019-03-19T16:43:54.161Z,102683.41
2019-03-19T16:46:23.229Z,102689.56
2019-03-19T16:48:52.619Z,102687.34
2019-03-19T16:51:21.674Z,102697.49
2019-03-19T16:53:50.725Z,102695.40
2019-03-19T16:56:20.353Z,102704.41
2019-03-19T16:58:49.510Z,102706.84
2019-03-19T17:01:18.567Z,102707.09
2019-03-19T17:03:47.604Z,102708.09
2019-03-19T17:06:17.150Z,102705.66
2019-03-19T17:08:46.550Z,102702.51
2019-03-19T17:11:15.610Z,102709.84
2019-03-19T17:13:44.752Z,102712.13
2019-03-19T17:16:14.305Z,102709.69
2019-03-19T17:18:43.401Z,102710.02
2019-03-19T17:21:12.725Z,102701.39
2019-03-19T17:23:41.857Z,102719.45
2019-03-19T17:26:10.954Z,102712.68
2019-03-19T17:28:40.023Z,102718.28
2019-03-19T17:31:09.434Z,102713.80
2019-03-19T17:33:38.635Z,102711.23
2019-03-19T17:36:07.691Z,102719.52
2019-03-19T17:38:36.766Z,102724.16
2019-03-19T17:41:07.315Z,102727.56
2019-03-19T17:43:36.751Z,102727.42
2019-03-19T17:46:05.915Z,102732.17
2019-03-19T17:48:34.984Z,102730.45
2019-03-19T17:51:04.330Z,102731.59
2019-03-19T17:53:33.368Z,102730.00
2019-03-19T17:56:02.581Z,102741.81
2019-03-19T17:58:32.033Z,102750.37
2019-03-19T18:01:01.414Z,102752.91
2019-03-19T18:03:30.737Z,102752.78
2019-03-19T18:05:59.787Z,102764.59
2019-03-19T18:08:29.113Z,102759.25
2019-03-19T18:10:58.570Z,102761.66
2019-03-19T18:13:27.881Z,102761.66
2019-03-19T18:15:56.913Z,102751.92
2019-03-19T18:18:29.638Z,102764.12
2019-03-19T18:20:58.659Z,102759.50
2019-03-19T18:23:29.472Z,102763.50
2019-03-19T18:25:59.555Z,102758.14
2019-03-19T18:28:28.574Z,102761.67
2019-03-19T18:30:57.910Z,102753.17
2019-03-19T18:33:27.270Z,102759.84
2019-03-19T18:35:56.742Z,102764.85
2019-03-19T18:38:25.928Z,102763.14
2019-03-19T18:40:55.292Z,102764.48
2019-03-19T18:43:24.299Z,102762.41
2019-03-19T18:45:53.336Z,102772.63
2019-03-19T18:48:22.361Z,102773.96
2019-03-19T18:50:51.422Z,102773.54
2019-03-19T18:53:20.428Z,102780.16
2019-03-19T18:55:49.483Z,102786.01
2019-03-19T18:58:18.554Z,102801.47
2019-03-19T19:00:47.607Z,102804.75
2019-03-19T19:03:16.657Z,102800.35
2019-03-19T19:05:45.724Z,102802.58
2019-03-19T19:08:15.074Z,102802.70
2019-03-19T19:10:44.845Z,102803.65
2019-03-19T19:13:13.864Z,102812.41
2019-03-19T19:15:43.028Z,102807.73
2019-03-19T19:18:12.071Z,102804.42
2019-03-19T19:20:41.119Z,102806.70
2019-03-19T19:23:10.136Z,102813.38
2019-03-19T19:25:39.218Z,102806.79
2019-03-19T19:28:08.269Z,102814.53
2019-03-19T19:30:37.674Z,102820.70
2019-03-19T19:33:06.714Z,102821.69
2019-03-19T19:35:35.726Z,102818.28
2019-03-19T19:38:05.139Z,102825.02
2019-03-19T19:40:34.181Z,102821.92
2019-03-19T19:43:03.165Z,102827.05
2019-03-19T19:45:32.220Z,102832.95
2019-03-19T19:48:01.286Z,102838.30
2019-03-19T19:50:30.382Z,102841.01
2019-03-19T19:52:59.452Z,102838.57
2019-03-19T19:55:28.493Z,102845.89
2019-03-19T19:57:57.506Z,102851.51
2019-03-19T20:00:26.538Z,102854.20
2019-03-19T20:02:55.567Z,102863.85
2019-03-19T20:05:24.604Z,102858.55
2019-03-19T20:07:53.647Z,102873.55
2019-03-19T20:10:22.711Z,102876.12
2019-03-19T20:12:52.085Z,102877.91
2019-03-19T20:15:21.440Z,102881.37
2019-03-19T20:17:50.497Z,102882.75
2019-03-19T20:20:20.247Z,102885.08
2019-03-19T20:22:49.264Z,102885.20
2019-03-19T20:25:18.542Z,102884.60
2019-03-19T20:27:47.930Z,102880.86
2019-03-19T20:30:18.388Z,102884.98
2019-03-19T20:32:47.703Z,102892.41
2019-03-19T20:35:17.129Z,102893.88
2019-03-19T20:37:46.164Z,102899.64
2019-03-19T20:40:15.193Z,102895.62
2019-03-19T20:42:44.368Z,102892.00
2019-03-19T20:45:14.212Z,102899.28
2019-03-19T20:47:43.230Z,102897.45
2019-03-19T20:50:23.983Z,102890.97
2019-03-19T20:52:53.400Z,102889.64
2019-03-19T20:55:22.735Z,102887.34
2019-03-19T20:57:51.792Z,102885.13
2019-03-19T21:00:20.800Z,102887.13
2019-03-19T21:02:49.824Z,102887.58
2019-03-19T21:05:19.409Z,102892.92
2019-03-19T21:07:48.452Z,102892.63
2019-03-19T21:10:18.518Z,102897.26
2019-03-19T21:12:47.849Z,102904.05
2019-03-19T21:15:18.476Z,102894.52
2019-03-19T21:17:48.061Z,102893.34
2019-03-19T21:20:17.414Z,102888.11
2019-03-19T21:22:46.504Z,102886.34
2019-03-19T21:25:15.850Z,102884.25
2019-03-19T21:27:45.151Z,102884.83
2019-03-19T21:30:14.721Z,102883.52
2019-03-19T21:32:43.776Z,102888.66
2019-03-19T21:35:13.056Z,102894.19
2019-03-19T21:37:42.658Z,102898.91
2019-03-19T21:40:12.681Z,102903.26
2019-03-19T21:42:41.696Z,102904.14
2019-03-19T21:45:11.558Z,102922.56
2019-03-19T21:47:40.890Z,102931.30
2019-03-19T21:50:11.708Z,102932.38
2019-03-19T21:52:40.786Z,102930.63
2019-03-19T21:55:10.082Z,102931.75
2019-03-19T21:57:39.075Z,102936.88
2019-03-19T22:00:11.056Z,102936.43
2019-03-19T22:02:40.139Z,102937.45
2019-03-19T22:05:09.367Z,102939.31
2019-03-19T22:07:38.661Z,102935.90
2019-03-19T22:10:10.020Z,102939.77
2019-03-19T22:12:39.048Z,102938.03
2019-03-19T22:15:12.801Z,102931.03
2019-03-19T22:17:41.802Z,102934.34
2019-03-19T22:20:11.442Z,102928.72
2019-03-19T22:22:40.746Z,102928.47
2019-03-19T22:25:10.583Z,102928.13
2019-03-19T22:27:39.617Z,102926.39
2019-03-19T22:30:10.883Z,102928.77
2019-03-19T22:32:39.898Z,102928.77
2019-03-19T22:35:09.440Z,102934.50
2019-03-19T22:37:39.106Z,102938.31
2019-03-19T22:40:10.029Z,102932.41
2019-03-19T22:42:39.424Z,102931.87
2019-03-19T22:45:10.506Z,102928.17
2019-03-19T22:47:39.560Z,102926.03
2019-03-19T22:50:09.734Z,102936.38
2019-03-19T22:52:39.074Z,102939.38
2019-03-19T22:55:08.625Z,102936.45
2019-03-19T22:57:37.636Z,102936.97
2019-03-19T23:00:09.209Z,102936.70
2019-03-19T23:02:38.258Z,102940.38
2019-03-19T23:05:08.041Z,102943.41
2019-03-19T23:07:37.410Z,102941.36
2019-03-19T23:10:06.681Z,102946.44
2019-03-19T23:12:35.710Z,102944.42
2019-03-19T23:15:05.684Z,102953.81
2019-03-19T23:17:34.773Z,102955.94
2019-03-19T23:20:03.822Z,102958.92
2019-03-19T23:22:32.906Z,102958.83
2019-03-19T23:25:01.934Z,102967.23
2019-03-19T23:27:31.396Z,102968.00
2019-03-19T23:30:00.460Z,102960.77
2019-03-19T23:32:29.758Z,102960.77
2019-03-19T23:34:58.800Z,102958.51
2019-03-19T23:37:27.799Z,102965.76
2019-03-19T23:39:56.858Z,102957.75
2019-03-19T23:42:25.862Z,102961.66
2019-03-19T23:44:54.939Z,102963.84
2019-03-19T23:47:24.276Z,102955.19
2019-03-19T23:49:53.342Z,102959.66
2019-03-19T23:52:22.780Z,102970.87
2019-03-19T23:54:51.802Z,102976.86
2019-03-19T23:57:20.840Z,102975.07
2019-03-19T23:59:49.864Z,102973.16
